sensor_id;sensor_type;location;lat;lon;timestamp;P1;durP1;ratioP1;P2;durP2;ratioP2
5923;SDS011;2987;50.884;14.818;2022-10-16T00:02:10;10.80;;;8.97;;
5923;SDS011;2987;50.884;14.818;2022-10-16T00:04:36;11.20;;;9.80;;
5923;SDS011;2987;50.884;14.818;2022-10-16T00:07:02;10.50;;;9.03;;
5923;SDS011;2987;50.884;14.818;2022-10-16T00:09:28;9.80;;;8.40;;
5923;SDS011;2987;50.884;14.818;2022-10-16T00:11:54;8.30;;;7.57;;
5923;SDS011;2987;50.884;14.818;2022-10-16T00:14:20;10.00;;;7.73;;
5923;SDS011;2987;50.884;14.818;2022-10-16T00:16:46;8.90;;;8.00;;
5923;SDS011;2987;50.884;14.818;2022-10-16T00:19:12;13.43;;;7.77;;
5923;SDS011;2987;50.884;14.818;2022-10-16T00:21:39;7.83;;;6.77;;
5923;SDS011;2987;50.884;14.818;2022-10-16T00:24:25;12.97;;;7.03;;
5923;SDS011;2987;50.884;14.818;2022-10-16T00:26:51;7.63;;;6.80;;
5923;SDS011;2987;50.884;14.818;2022-10-16T00:29:17;9.97;;;7.27;;
5923;SDS011;2987;50.884;14.818;2022-10-16T00:31:43;7.27;;;6.50;;
5923;SDS011;2987;50.884;14.818;2022-10-16T00:34:09;8.20;;;6.60;;
5923;SDS011;2987;50.884;14.818;2022-10-16T00:36:36;9.13;;;7.10;;
5923;SDS011;2987;50.884;14.818;2022-10-16T00:39:05;10.00;;;6.87;;
5923;SDS011;2987;50.884;14.818;2022-10-16T00:41:31;9.10;;;7.03;;
5923;SDS011;2987;50.884;14.818;2022-10-16T00:43:59;9.33;;;6.47;;
5923;SDS011;2987;50.884;14.818;2022-10-16T00:49:05;9.53;;;6.90;;
5923;SDS011;2987;50.884;14.818;2022-10-16T00:51:43;12.03;;;6.97;;
5923;SDS011;2987;50.884;14.818;2022-10-16T00:54:22;7.30;;;6.60;;
5923;SDS011;2987;50.884;14.818;2022-10-16T00:56:54;10.63;;;6.83;;
5923;SDS011;2987;50.884;14.818;2022-10-16T00:59:26;13.60;;;7.00;;
5923;SDS011;2987;50.884;14.818;2022-10-16T01:01:55;7.93;;;7.13;;
5923;SDS011;2987;50.884;14.818;2022-10-16T01:04:23;9.10;;;7.17;;
5923;SDS011;2987;50.884;14.818;2022-10-16T01:07:09;8.20;;;7.13;;
5923;SDS011;2987;50.884;14.818;2022-10-16T01:10:03;10.80;;;6.60;;
5923;SDS011;2987;50.884;14.818;2022-10-16T01:15:37;8.80;;;6.77;;
5923;SDS011;2987;50.884;14.818;2022-10-16T01:21:06;8.03;;;6.43;;
5923;SDS011;2987;50.884;14.818;2022-10-16T01:23:49;9.47;;;7.37;;
5923;SDS011;2987;50.884;14.818;2022-10-16T01:40:07;11.83;;;8.57;;
5923;SDS011;2987;50.884;14.818;2022-10-16T01:42:53;10.10;;;7.97;;
5923;SDS011;2987;50.884;14.818;2022-10-16T01:45:25;9.10;;;7.70;;
5923;SDS011;2987;50.884;14.818;2022-10-16T01:47:53;13.80;;;8.13;;
5923;SDS011;2987;50.884;14.818;2022-10-16T01:50:21;12.03;;;9.00;;
5923;SDS011;2987;50.884;14.818;2022-10-16T01:52:48;8.90;;;8.07;;
5923;SDS011;2987;50.884;14.818;2022-10-16T01:55:19;9.63;;;8.53;;
5923;SDS011;2987;50.884;14.818;2022-10-16T01:57:51;12.57;;;8.97;;
5923;SDS011;2987;50.884;14.818;2022-10-16T02:00:20;9.37;;;8.23;;
5923;SDS011;2987;50.884;14.818;2022-10-16T02:02:49;11.47;;;9.03;;
5923;SDS011;2987;50.884;14.818;2022-10-16T02:05:20;11.60;;;8.63;;
5923;SDS011;2987;50.884;14.818;2022-10-16T02:07:54;11.30;;;8.87;;
5923;SDS011;2987;50.884;14.818;2022-10-16T02:10:21;10.07;;;9.00;;
5923;SDS011;2987;50.884;14.818;2022-10-16T02:12:50;10.77;;;8.77;;
5923;SDS011;2987;50.884;14.818;2022-10-16T02:15:23;10.53;;;9.47;;
5923;SDS011;2987;50.884;14.818;2022-10-16T02:17:49;10.50;;;9.40;;
5923;SDS011;2987;50.884;14.818;2022-10-16T02:20:15;12.07;;;9.17;;
5923;SDS011;2987;50.884;14.818;2022-10-16T02:22:43;13.10;;;10.03;;
5923;SDS011;2987;50.884;14.818;2022-10-16T02:25:19;10.80;;;9.13;;
5923;SDS011;2987;50.884;14.818;2022-10-16T02:33:16;9.57;;;8.60;;
5923;SDS011;2987;50.884;14.818;2022-10-16T02:35:46;9.80;;;8.23;;
5923;SDS011;2987;50.884;14.818;2022-10-16T02:40:43;10.67;;;8.37;;
5923;SDS011;2987;50.884;14.818;2022-10-16T02:43:10;11.73;;;8.80;;
5923;SDS011;2987;50.884;14.818;2022-10-16T02:45:44;11.17;;;8.20;;
5923;SDS011;2987;50.884;14.818;2022-10-16T02:48:10;10.43;;;8.53;;
5923;SDS011;2987;50.884;14.818;2022-10-16T02:50:36;9.57;;;8.03;;
5923;SDS011;2987;50.884;14.818;2022-10-16T02:53:02;11.53;;;8.43;;
5923;SDS011;2987;50.884;14.818;2022-10-16T02:55:29;9.07;;;7.87;;
5923;SDS011;2987;50.884;14.818;2022-10-16T02:57:55;9.30;;;7.83;;
5923;SDS011;2987;50.884;14.818;2022-10-16T03:00:21;8.60;;;7.70;;
5923;SDS011;2987;50.884;14.818;2022-10-16T03:02:47;12.90;;;7.97;;
5923;SDS011;2987;50.884;14.818;2022-10-16T03:05:16;8.57;;;7.63;;
5923;SDS011;2987;50.884;14.818;2022-10-16T03:07:43;9.73;;;7.73;;
5923;SDS011;2987;50.884;14.818;2022-10-16T03:10:09;11.30;;;8.10;;
5923;SDS011;2987;50.884;14.818;2022-10-16T03:12:35;8.93;;;7.33;;
5923;SDS011;2987;50.884;14.818;2022-10-16T03:15:02;9.07;;;8.13;;
5923;SDS011;2987;50.884;14.818;2022-10-16T03:17:29;9.10;;;7.60;;
5923;SDS011;2987;50.884;14.818;2022-10-16T03:19:55;10.63;;;8.30;;
5923;SDS011;2987;50.884;14.818;2022-10-16T03:22:21;9.77;;;7.97;;
5923;SDS011;2987;50.884;14.818;2022-10-16T03:24:47;10.97;;;7.90;;
5923;SDS011;2987;50.884;14.818;2022-10-16T03:27:13;9.00;;;8.10;;
5923;SDS011;2987;50.884;14.818;2022-10-16T03:29:39;11.23;;;8.27;;
5923;SDS011;2987;50.884;14.818;2022-10-16T03:32:06;9.13;;;7.63;;
5923;SDS011;2987;50.884;14.818;2022-10-16T03:34:32;9.67;;;7.13;;
5923;SDS011;2987;50.884;14.818;2022-10-16T03:36:58;9.20;;;8.30;;
5923;SDS011;2987;50.884;14.818;2022-10-16T03:39:24;9.10;;;7.77;;
5923;SDS011;2987;50.884;14.818;2022-10-16T03:41:50;10.17;;;8.30;;
5923;SDS011;2987;50.884;14.818;2022-10-16T03:44:17;11.20;;;8.60;;
5923;SDS011;2987;50.884;14.818;2022-10-16T03:46:43;9.70;;;8.03;;
5923;SDS011;2987;50.884;14.818;2022-10-16T03:49:09;7.97;;;7.13;;
5923;SDS011;2987;50.884;14.818;2022-10-16T03:51:35;14.57;;;7.90;;
5923;SDS011;2987;50.884;14.818;2022-10-16T03:54:02;10.37;;;7.70;;
5923;SDS011;2987;50.884;14.818;2022-10-16T03:56:29;8.57;;;7.70;;
5923;SDS011;2987;50.884;14.818;2022-10-16T03:58:55;9.80;;;8.17;;
5923;SDS011;2987;50.884;14.818;2022-10-16T04:01:21;11.57;;;8.30;;
5923;SDS011;2987;50.884;14.818;2022-10-16T04:03:47;9.47;;;8.20;;
5923;SDS011;2987;50.884;14.818;2022-10-16T04:06:13;11.53;;;9.07;;
5923;SDS011;2987;50.884;14.818;2022-10-16T04:08:41;12.10;;;8.57;;
5923;SDS011;2987;50.884;14.818;2022-10-16T04:11:08;9.87;;;8.87;;
5923;SDS011;2987;50.884;14.818;2022-10-16T04:13:35;9.90;;;8.87;;
5923;SDS011;2987;50.884;14.818;2022-10-16T04:16:02;12.13;;;9.00;;
5923;SDS011;2987;50.884;14.818;2022-10-16T04:18:28;9.13;;;8.23;;
5923;SDS011;2987;50.884;14.818;2022-10-16T04:20:54;12.20;;;9.20;;
5923;SDS011;2987;50.884;14.818;2022-10-16T04:23:20;11.13;;;9.37;;
5923;SDS011;2987;50.884;14.818;2022-10-16T04:25:48;10.43;;;9.23;;
5923;SDS011;2987;50.884;14.818;2022-10-16T04:28:14;11.83;;;9.13;;
5923;SDS011;2987;50.884;14.818;2022-10-16T04:30:40;12.33;;;9.47;;
5923;SDS011;2987;50.884;14.818;2022-10-16T04:33:08;11.80;;;9.67;;
5923;SDS011;2987;50.884;14.818;2022-10-16T04:35:35;13.00;;;10.50;;
5923;SDS011;2987;50.884;14.818;2022-10-16T04:38:01;11.60;;;9.97;;
5923;SDS011;2987;50.884;14.818;2022-10-16T04:40:28;11.43;;;10.23;;
5923;SDS011;2987;50.884;14.818;2022-10-16T04:42:54;12.70;;;9.73;;
5923;SDS011;2987;50.884;14.818;2022-10-16T04:45:20;13.50;;;10.33;;
5923;SDS011;2987;50.884;14.818;2022-10-16T04:47:46;13.40;;;10.63;;
5923;SDS011;2987;50.884;14.818;2022-10-16T04:50:12;11.73;;;10.53;;
5923;SDS011;2987;50.884;14.818;2022-10-16T04:52:38;12.13;;;10.93;;
5923;SDS011;2987;50.884;14.818;2022-10-16T04:55:04;13.40;;;11.97;;
5923;SDS011;2987;50.884;14.818;2022-10-16T04:57:31;15.27;;;11.70;;
5923;SDS011;2987;50.884;14.818;2022-10-16T04:59:58;15.13;;;11.60;;
5923;SDS011;2987;50.884;14.818;2022-10-16T05:02:25;15.57;;;12.17;;
5923;SDS011;2987;50.884;14.818;2022-10-16T05:04:51;12.57;;;11.27;;
5923;SDS011;2987;50.884;14.818;2022-10-16T05:07:17;17.23;;;11.00;;
5923;SDS011;2987;50.884;14.818;2022-10-16T05:09:44;15.67;;;11.90;;
5923;SDS011;2987;50.884;14.818;2022-10-16T05:12:10;15.07;;;11.70;;
5923;SDS011;2987;50.884;14.818;2022-10-16T05:14:36;14.53;;;11.13;;
5923;SDS011;2987;50.884;14.818;2022-10-16T05:17:03;13.13;;;11.30;;
5923;SDS011;2987;50.884;14.818;2022-10-16T05:19:29;16.70;;;11.17;;
5923;SDS011;2987;50.884;14.818;2022-10-16T05:21:55;12.07;;;10.87;;
5923;SDS011;2987;50.884;14.818;2022-10-16T05:24:21;11.60;;;10.50;;
5923;SDS011;2987;50.884;14.818;2022-10-16T05:26:47;13.73;;;11.20;;
5923;SDS011;2987;50.884;14.818;2022-10-16T05:29:14;13.37;;;10.60;;
5923;SDS011;2987;50.884;14.818;2022-10-16T05:31:40;14.33;;;10.50;;
5923;SDS011;2987;50.884;14.818;2022-10-16T05:34:06;15.10;;;10.27;;
5923;SDS011;2987;50.884;14.818;2022-10-16T05:36:32;12.80;;;10.13;;
5923;SDS011;2987;50.884;14.818;2022-10-16T05:38:58;15.03;;;10.27;;
5923;SDS011;2987;50.884;14.818;2022-10-16T05:41:24;13.27;;;9.83;;
5923;SDS011;2987;50.884;14.818;2022-10-16T05:43:51;12.03;;;9.57;;
5923;SDS011;2987;50.884;14.818;2022-10-16T05:46:19;11.00;;;9.37;;
5923;SDS011;2987;50.884;14.818;2022-10-16T05:48:45;10.60;;;9.50;;
5923;SDS011;2987;50.884;14.818;2022-10-16T05:51:12;10.00;;;9.10;;
5923;SDS011;2987;50.884;14.818;2022-10-16T05:53:40;12.90;;;9.77;;
5923;SDS011;2987;50.884;14.818;2022-10-16T05:56:06;11.10;;;9.70;;
5923;SDS011;2987;50.884;14.818;2022-10-16T05:58:36;11.63;;;9.83;;
5923;SDS011;2987;50.884;14.818;2022-10-16T06:01:05;11.80;;;8.90;;
5923;SDS011;2987;50.884;14.818;2022-10-16T06:03:35;10.70;;;9.10;;
5923;SDS011;2987;50.884;14.818;2022-10-16T06:06:09;9.50;;;8.60;;
5923;SDS011;2987;50.884;14.818;2022-10-16T06:08:38;10.63;;;9.63;;
5923;SDS011;2987;50.884;14.818;2022-10-16T06:11:06;10.93;;;9.70;;
5923;SDS011;2987;50.884;14.818;2022-10-16T06:13:34;12.10;;;9.70;;
5923;SDS011;2987;50.884;14.818;2022-10-16T06:16:01;11.47;;;8.83;;
5923;SDS011;2987;50.884;14.818;2022-10-16T06:18:29;10.57;;;9.43;;
5923;SDS011;2987;50.884;14.818;2022-10-16T06:20:55;15.33;;;9.90;;
5923;SDS011;2987;50.884;14.818;2022-10-16T06:23:22;13.40;;;9.97;;
5923;SDS011;2987;50.884;14.818;2022-10-16T06:25:49;11.73;;;9.73;;
5923;SDS011;2987;50.884;14.818;2022-10-16T06:28:15;10.47;;;9.37;;
5923;SDS011;2987;50.884;14.818;2022-10-16T06:30:41;11.23;;;10.23;;
5923;SDS011;2987;50.884;14.818;2022-10-16T06:33:10;10.80;;;9.77;;
5923;SDS011;2987;50.884;14.818;2022-10-16T06:35:37;13.97;;;9.80;;
5923;SDS011;2987;50.884;14.818;2022-10-16T06:38:03;10.30;;;9.17;;
5923;SDS011;2987;50.884;14.818;2022-10-16T06:40:29;11.27;;;10.17;;
5923;SDS011;2987;50.884;14.818;2022-10-16T06:42:55;9.93;;;8.93;;
5923;SDS011;2987;50.884;14.818;2022-10-16T06:45:21;10.50;;;9.50;;
5923;SDS011;2987;50.884;14.818;2022-10-16T06:47:47;9.77;;;8.87;;
5923;SDS011;2987;50.884;14.818;2022-10-16T06:50:14;10.27;;;9.20;;
5923;SDS011;2987;50.884;14.818;2022-10-16T06:52:40;10.47;;;9.47;;
5923;SDS011;2987;50.884;14.818;2022-10-16T06:55:06;10.37;;;9.37;;
5923;SDS011;2987;50.884;14.818;2022-10-16T06:57:33;10.73;;;9.67;;
5923;SDS011;2987;50.884;14.818;2022-10-16T06:59:59;11.10;;;9.77;;
5923;SDS011;2987;50.884;14.818;2022-10-16T07:02:25;12.77;;;10.00;;
5923;SDS011;2987;50.884;14.818;2022-10-16T07:04:54;10.50;;;9.40;;
5923;SDS011;2987;50.884;14.818;2022-10-16T07:07:22;11.40;;;10.40;;
5923;SDS011;2987;50.884;14.818;2022-10-16T07:09:50;9.90;;;8.90;;
5923;SDS011;2987;50.884;14.818;2022-10-16T07:12:16;11.27;;;9.67;;
5923;SDS011;2987;50.884;14.818;2022-10-16T07:14:42;10.87;;;9.63;;
5923;SDS011;2987;50.884;14.818;2022-10-16T07:17:08;10.20;;;9.30;;
5923;SDS011;2987;50.884;14.818;2022-10-16T07:19:35;10.47;;;8.77;;
5923;SDS011;2987;50.884;14.818;2022-10-16T07:22:01;12.90;;;9.17;;
5923;SDS011;2987;50.884;14.818;2022-10-16T07:24:28;10.30;;;9.27;;
5923;SDS011;2987;50.884;14.818;2022-10-16T07:26:54;9.17;;;8.37;;
5923;SDS011;2987;50.884;14.818;2022-10-16T07:29:21;10.13;;;9.03;;
5923;SDS011;2987;50.884;14.818;2022-10-16T07:31:48;10.47;;;8.93;;
5923;SDS011;2987;50.884;14.818;2022-10-16T07:34:15;8.83;;;7.93;;
5923;SDS011;2987;50.884;14.818;2022-10-16T07:36:42;9.97;;;8.90;;
5923;SDS011;2987;50.884;14.818;2022-10-16T07:39:08;10.17;;;7.77;;
5923;SDS011;2987;50.884;14.818;2022-10-16T07:41:34;10.30;;;7.73;;
5923;SDS011;2987;50.884;14.818;2022-10-16T07:44:02;12.27;;;7.93;;
5923;SDS011;2987;50.884;14.818;2022-10-16T07:46:29;8.87;;;7.97;;
5923;SDS011;2987;50.884;14.818;2022-10-16T07:48:57;8.63;;;7.93;;
5923;SDS011;2987;50.884;14.818;2022-10-16T07:51:24;9.30;;;8.13;;
5923;SDS011;2987;50.884;14.818;2022-10-16T07:53:51;13.83;;;8.23;;
5923;SDS011;2987;50.884;14.818;2022-10-16T07:56:18;9.67;;;8.77;;
5923;SDS011;2987;50.884;14.818;2022-10-16T07:58:46;8.40;;;7.60;;
5923;SDS011;2987;50.884;14.818;2022-10-16T08:01:15;8.33;;;7.40;;
5923;SDS011;2987;50.884;14.818;2022-10-16T08:03:43;10.30;;;7.77;;
5923;SDS011;2987;50.884;14.818;2022-10-16T08:06:10;9.27;;;8.33;;
5923;SDS011;2987;50.884;14.818;2022-10-16T08:08:36;7.63;;;7.03;;
5923;SDS011;2987;50.884;14.818;2022-10-16T08:11:03;7.77;;;6.97;;
5923;SDS011;2987;50.884;14.818;2022-10-16T08:13:29;7.43;;;6.83;;
5923;SDS011;2987;50.884;14.818;2022-10-16T08:15:57;7.10;;;6.50;;
5923;SDS011;2987;50.884;14.818;2022-10-16T08:18:23;6.43;;;5.90;;
5923;SDS011;2987;50.884;14.818;2022-10-16T08:20:57;7.00;;;5.97;;
5923;SDS011;2987;50.884;14.818;2022-10-16T08:23:26;5.90;;;5.40;;
5923;SDS011;2987;50.884;14.818;2022-10-16T08:25:53;7.97;;;6.00;;
5923;SDS011;2987;50.884;14.818;2022-10-16T08:28:20;8.40;;;5.40;;
5923;SDS011;2987;50.884;14.818;2022-10-16T08:30:48;6.30;;;5.80;;
5923;SDS011;2987;50.884;14.818;2022-10-16T08:33:14;5.93;;;5.33;;
5923;SDS011;2987;50.884;14.818;2022-10-16T08:35:40;6.57;;;5.20;;
5923;SDS011;2987;50.884;14.818;2022-10-16T08:38:10;5.73;;;5.13;;
5923;SDS011;2987;50.884;14.818;2022-10-16T08:40:36;5.47;;;4.97;;
5923;SDS011;2987;50.884;14.818;2022-10-16T08:49:00;6.63;;;5.17;;
5923;SDS011;2987;50.884;14.818;2022-10-16T08:56:24;5.60;;;4.73;;
5923;SDS011;2987;50.884;14.818;2022-10-16T08:58:51;6.83;;;4.60;;
5923;SDS011;2987;50.884;14.818;2022-10-16T09:01:20;5.20;;;4.40;;
5923;SDS011;2987;50.884;14.818;2022-10-16T09:03:54;6.00;;;4.53;;
5923;SDS011;2987;50.884;14.818;2022-10-16T09:06:47;6.20;;;4.40;;
5923;SDS011;2987;50.884;14.818;2022-10-16T09:09:41;6.03;;;4.00;;
5923;SDS011;2987;50.884;14.818;2022-10-16T09:12:31;4.73;;;4.33;;
5923;SDS011;2987;50.884;14.818;2022-10-16T09:25:44;7.17;;;4.20;;
5923;SDS011;2987;50.884;14.818;2022-10-16T09:30:40;5.63;;;3.87;;
5923;SDS011;2987;50.884;14.818;2022-10-16T09:33:07;4.30;;;3.90;;
5923;SDS011;2987;50.884;14.818;2022-10-16T09:35:37;5.87;;;3.90;;
5923;SDS011;2987;50.884;14.818;2022-10-16T09:38:06;5.47;;;4.47;;
5923;SDS011;2987;50.884;14.818;2022-10-16T09:40:36;5.07;;;3.73;;
5923;SDS011;2987;50.884;14.818;2022-10-16T09:43:13;4.23;;;3.90;;
5923;SDS011;2987;50.884;14.818;2022-10-16T09:46:04;4.03;;;3.47;;
5923;SDS011;2987;50.884;14.818;2022-10-16T09:48:36;7.07;;;3.50;;
5923;SDS011;2987;50.884;14.818;2022-10-16T09:51:06;7.23;;;3.90;;
5923;SDS011;2987;50.884;14.818;2022-10-16T09:53:45;5.20;;;4.23;;
5923;SDS011;2987;50.884;14.818;2022-10-16T09:56:21;5.60;;;4.20;;
5923;SDS011;2987;50.884;14.818;2022-10-16T09:58:54;5.03;;;3.63;;
5923;SDS011;2987;50.884;14.818;2022-10-16T10:01:28;4.97;;;3.73;;
5923;SDS011;2987;50.884;14.818;2022-10-16T10:04:01;6.13;;;3.70;;
5923;SDS011;2987;50.884;14.818;2022-10-16T10:06:30;4.93;;;3.30;;
5923;SDS011;2987;50.884;14.818;2022-10-16T10:09:04;3.70;;;3.40;;
5923;SDS011;2987;50.884;14.818;2022-10-16T10:16:50;5.07;;;3.07;;
5923;SDS011;2987;50.884;14.818;2022-10-16T10:19:19;4.93;;;3.00;;
5923;SDS011;2987;50.884;14.818;2022-10-16T10:24:15;3.43;;;3.03;;
5923;SDS011;2987;50.884;14.818;2022-10-16T10:32:08;7.23;;;3.40;;
5923;SDS011;2987;50.884;14.818;2022-10-16T10:48:45;3.10;;;2.90;;
5923;SDS011;2987;50.884;14.818;2022-10-16T10:51:30;5.07;;;2.47;;
5923;SDS011;2987;50.884;14.818;2022-10-16T10:56:50;4.50;;;2.50;;
5923;SDS011;2987;50.884;14.818;2022-10-16T10:59:28;3.17;;;2.50;;
5923;SDS011;2987;50.884;14.818;2022-10-16T11:07:49;5.83;;;2.90;;
5923;SDS011;2987;50.884;14.818;2022-10-16T11:10:22;3.27;;;2.50;;
5923;SDS011;2987;50.884;14.818;2022-10-16T11:15:37;3.53;;;2.30;;
5923;SDS011;2987;50.884;14.818;2022-10-16T11:18:12;4.20;;;2.57;;
5923;SDS011;2987;50.884;14.818;2022-10-16T11:25:42;6.00;;;2.77;;
5923;SDS011;2987;50.884;14.818;2022-10-16T11:28:11;6.50;;;3.13;;
5923;SDS011;2987;50.884;14.818;2022-10-16T11:30:50;4.30;;;2.40;;
5923;SDS011;2987;50.884;14.818;2022-10-16T11:33:27;3.77;;;2.50;;
5923;SDS011;2987;50.884;14.818;2022-10-16T11:36:06;6.67;;;2.53;;
5923;SDS011;2987;50.884;14.818;2022-10-16T11:38:44;3.23;;;2.23;;
5923;SDS011;2987;50.884;14.818;2022-10-16T11:41:23;4.13;;;2.43;;
5923;SDS011;2987;50.884;14.818;2022-10-16T11:44:14;4.73;;;2.70;;
5923;SDS011;2987;50.884;14.818;2022-10-16T11:49:59;6.67;;;2.30;;
5923;SDS011;2987;50.884;14.818;2022-10-16T12:08:43;2.73;;;2.10;;
5923;SDS011;2987;50.884;14.818;2022-10-16T12:14:05;2.23;;;2.00;;
5923;SDS011;2987;50.884;14.818;2022-10-16T12:16:59;6.30;;;2.30;;
5923;SDS011;2987;50.884;14.818;2022-10-16T12:19:28;2.17;;;1.87;;
5923;SDS011;2987;50.884;14.818;2022-10-16T12:21:56;4.80;;;2.23;;
5923;SDS011;2987;50.884;14.818;2022-10-16T12:24:29;5.63;;;2.33;;
5923;SDS011;2987;50.884;14.818;2022-10-16T12:32:35;2.27;;;1.90;;
5923;SDS011;2987;50.884;14.818;2022-10-16T12:35:05;4.40;;;2.10;;
5923;SDS011;2987;50.884;14.818;2022-10-16T12:40:33;2.30;;;2.10;;
5923;SDS011;2987;50.884;14.818;2022-10-16T12:48:29;2.57;;;2.00;;
5923;SDS011;2987;50.884;14.818;2022-10-16T12:50:56;7.03;;;2.40;;
5923;SDS011;2987;50.884;14.818;2022-10-16T12:56:01;5.80;;;2.10;;
5923;SDS011;2987;50.884;14.818;2022-10-16T12:58:49;3.07;;;2.27;;
5923;SDS011;2987;50.884;14.818;2022-10-16T13:04:29;3.03;;;1.80;;
5923;SDS011;2987;50.884;14.818;2022-10-16T13:15:43;2.47;;;2.17;;
5923;SDS011;2987;50.884;14.818;2022-10-16T13:18:29;4.60;;;2.00;;
5923;SDS011;2987;50.884;14.818;2022-10-16T13:21:12;4.40;;;1.80;;
5923;SDS011;2987;50.884;14.818;2022-10-16T13:23:53;4.60;;;2.27;;
5923;SDS011;2987;50.884;14.818;2022-10-16T13:29:15;4.43;;;1.90;;
5923;SDS011;2987;50.884;14.818;2022-10-16T13:31:42;3.53;;;1.80;;
5923;SDS011;2987;50.884;14.818;2022-10-16T13:39:14;3.80;;;1.90;;
5923;SDS011;2987;50.884;14.818;2022-10-16T13:42:03;4.00;;;1.80;;
5923;SDS011;2987;50.884;14.818;2022-10-16T13:44:41;6.90;;;2.20;;
5923;SDS011;2987;50.884;14.818;2022-10-16T13:47:21;6.83;;;2.33;;
5923;SDS011;2987;50.884;14.818;2022-10-16T13:50:09;4.57;;;1.93;;
5923;SDS011;2987;50.884;14.818;2022-10-16T13:52:37;2.97;;;2.10;;
5923;SDS011;2987;50.884;14.818;2022-10-16T13:55:04;3.43;;;1.90;;
5923;SDS011;2987;50.884;14.818;2022-10-16T13:57:38;6.10;;;2.00;;
5923;SDS011;2987;50.884;14.818;2022-10-16T14:00:17;4.57;;;2.27;;
5923;SDS011;2987;50.884;14.818;2022-10-16T14:02:53;2.10;;;1.90;;
5923;SDS011;2987;50.884;14.818;2022-10-16T14:05:27;4.33;;;2.03;;
5923;SDS011;2987;50.884;14.818;2022-10-16T14:07:53;4.03;;;2.27;;
5923;SDS011;2987;50.884;14.818;2022-10-16T14:10:25;7.43;;;2.20;;
5923;SDS011;2987;50.884;14.818;2022-10-16T14:13:04;5.37;;;2.43;;
5923;SDS011;2987;50.884;14.818;2022-10-16T14:15:32;5.50;;;2.13;;
5923;SDS011;2987;50.884;14.818;2022-10-16T14:18:01;8.80;;;2.17;;
5923;SDS011;2987;50.884;14.818;2022-10-16T14:20:29;3.23;;;2.10;;
5923;SDS011;2987;50.884;14.818;2022-10-16T14:23:00;2.53;;;2.10;;
5923;SDS011;2987;50.884;14.818;2022-10-16T14:25:44;8.13;;;2.00;;
5923;SDS011;2987;50.884;14.818;2022-10-16T14:28:17;6.10;;;2.20;;
5923;SDS011;2987;50.884;14.818;2022-10-16T14:31:01;5.97;;;2.30;;
5923;SDS011;2987;50.884;14.818;2022-10-16T14:33:48;2.70;;;2.10;;
5923;SDS011;2987;50.884;14.818;2022-10-16T14:36:15;4.27;;;2.17;;
5923;SDS011;2987;50.884;14.818;2022-10-16T14:46:29;3.47;;;2.70;;
5923;SDS011;2987;50.884;14.818;2022-10-16T14:49:01;2.60;;;2.30;;
5923;SDS011;2987;50.884;14.818;2022-10-16T14:51:30;7.57;;;2.63;;
5923;SDS011;2987;50.884;14.818;2022-10-16T14:53:56;3.87;;;2.50;;
5923;SDS011;2987;50.884;14.818;2022-10-16T14:56:23;4.37;;;2.50;;
5923;SDS011;2987;50.884;14.818;2022-10-16T14:58:52;3.20;;;2.60;;
5923;SDS011;2987;50.884;14.818;2022-10-16T15:01:20;5.87;;;2.60;;
5923;SDS011;2987;50.884;14.818;2022-10-16T15:03:46;6.43;;;2.50;;
5923;SDS011;2987;50.884;14.818;2022-10-16T15:06:15;6.53;;;3.23;;
5923;SDS011;2987;50.884;14.818;2022-10-16T15:08:41;3.90;;;2.90;;
5923;SDS011;2987;50.884;14.818;2022-10-16T15:11:10;7.47;;;3.00;;
5923;SDS011;2987;50.884;14.818;2022-10-16T15:13:40;6.33;;;3.40;;
5923;SDS011;2987;50.884;14.818;2022-10-16T15:16:09;6.27;;;3.27;;
5923;SDS011;2987;50.884;14.818;2022-10-16T15:18:38;4.37;;;2.70;;
5923;SDS011;2987;50.884;14.818;2022-10-16T15:21:04;3.77;;;3.00;;
5923;SDS011;2987;50.884;14.818;2022-10-16T15:23:31;4.53;;;2.97;;
5923;SDS011;2987;50.884;14.818;2022-10-16T15:25:57;4.80;;;3.20;;
5923;SDS011;2987;50.884;14.818;2022-10-16T15:28:24;6.60;;;3.17;;
5923;SDS011;2987;50.884;14.818;2022-10-16T15:30:52;3.97;;;2.70;;
5923;SDS011;2987;50.884;14.818;2022-10-16T15:33:21;5.03;;;2.83;;
5923;SDS011;2987;50.884;14.818;2022-10-16T15:35:50;3.97;;;3.03;;
5923;SDS011;2987;50.884;14.818;2022-10-16T15:38:18;4.37;;;2.80;;
5923;SDS011;2987;50.884;14.818;2022-10-16T15:40:47;5.57;;;3.33;;
5923;SDS011;2987;50.884;14.818;2022-10-16T15:43:15;5.50;;;2.93;;
5923;SDS011;2987;50.884;14.818;2022-10-16T15:45:42;5.67;;;2.90;;
5923;SDS011;2987;50.884;14.818;2022-10-16T15:48:11;6.07;;;3.10;;
5923;SDS011;2987;50.884;14.818;2022-10-16T15:50:39;4.47;;;3.13;;
5923;SDS011;2987;50.884;14.818;2022-10-16T15:53:14;4.77;;;3.40;;
5923;SDS011;2987;50.884;14.818;2022-10-16T15:55:40;4.13;;;2.73;;
5923;SDS011;2987;50.884;14.818;2022-10-16T15:58:06;5.03;;;3.30;;
5923;SDS011;2987;50.884;14.818;2022-10-16T16:00:33;8.00;;;3.17;;
5923;SDS011;2987;50.884;14.818;2022-10-16T16:02:59;4.00;;;2.93;;
5923;SDS011;2987;50.884;14.818;2022-10-16T16:05:25;4.70;;;3.37;;
5923;SDS011;2987;50.884;14.818;2022-10-16T16:07:53;3.97;;;2.80;;
5923;SDS011;2987;50.884;14.818;2022-10-16T16:10:19;4.33;;;3.00;;
5923;SDS011;2987;50.884;14.818;2022-10-16T16:12:47;7.73;;;4.03;;
5923;SDS011;2987;50.884;14.818;2022-10-16T16:15:18;10.73;;;3.00;;
5923;SDS011;2987;50.884;14.818;2022-10-16T16:17:46;3.10;;;2.80;;
5923;SDS011;2987;50.884;14.818;2022-10-16T16:20:13;3.53;;;2.97;;
5923;SDS011;2987;50.884;14.818;2022-10-16T16:22:39;3.70;;;2.93;;
5923;SDS011;2987;50.884;14.818;2022-10-16T16:25:05;3.30;;;2.63;;
5923;SDS011;2987;50.884;14.818;2022-10-16T16:27:32;7.47;;;2.97;;
5923;SDS011;2987;50.884;14.818;2022-10-16T16:30:00;6.00;;;2.70;;
5923;SDS011;2987;50.884;14.818;2022-10-16T16:32:30;4.80;;;3.13;;
5923;SDS011;2987;50.884;14.818;2022-10-16T16:34:56;6.53;;;3.20;;
5923;SDS011;2987;50.884;14.818;2022-10-16T16:37:23;4.87;;;2.90;;
5923;SDS011;2987;50.884;14.818;2022-10-16T16:39:49;6.27;;;2.70;;
5923;SDS011;2987;50.884;14.818;2022-10-16T16:42:15;4.17;;;2.87;;
5923;SDS011;2987;50.884;14.818;2022-10-16T16:44:41;4.73;;;3.27;;
5923;SDS011;2987;50.884;14.818;2022-10-16T16:47:07;3.77;;;3.07;;
5923;SDS011;2987;50.884;14.818;2022-10-16T16:49:34;4.67;;;3.00;;
5923;SDS011;2987;50.884;14.818;2022-10-16T16:52:00;5.10;;;2.80;;
5923;SDS011;2987;50.884;14.818;2022-10-16T16:54:27;8.37;;;3.07;;
5923;SDS011;2987;50.884;14.818;2022-10-16T16:56:53;3.03;;;2.63;;
5923;SDS011;2987;50.884;14.818;2022-10-16T16:59:19;4.73;;;3.13;;
5923;SDS011;2987;50.884;14.818;2022-10-16T17:01:47;4.80;;;2.57;;
5923;SDS011;2987;50.884;14.818;2022-10-16T17:04:14;5.10;;;3.07;;
5923;SDS011;2987;50.884;14.818;2022-10-16T17:06:41;5.43;;;3.00;;
5923;SDS011;2987;50.884;14.818;2022-10-16T17:09:08;5.13;;;3.10;;
5923;SDS011;2987;50.884;14.818;2022-10-16T17:11:35;6.93;;;3.10;;
5923;SDS011;2987;50.884;14.818;2022-10-16T17:14:01;3.50;;;3.20;;
5923;SDS011;2987;50.884;14.818;2022-10-16T17:16:30;6.90;;;3.17;;
5923;SDS011;2987;50.884;14.818;2022-10-16T17:19:00;7.83;;;3.37;;
5923;SDS011;2987;50.884;14.818;2022-10-16T17:21:28;3.73;;;2.73;;
5923;SDS011;2987;50.884;14.818;2022-10-16T17:23:57;2.63;;;2.40;;
5923;SDS011;2987;50.884;14.818;2022-10-16T17:26:25;3.57;;;3.27;;
5923;SDS011;2987;50.884;14.818;2022-10-16T17:28:53;6.47;;;3.90;;
5923;SDS011;2987;50.884;14.818;2022-10-16T17:31:23;7.03;;;3.50;;
5923;SDS011;2987;50.884;14.818;2022-10-16T17:33:52;5.17;;;3.83;;
5923;SDS011;2987;50.884;14.818;2022-10-16T17:36:19;6.83;;;4.53;;
5923;SDS011;2987;50.884;14.818;2022-10-16T17:38:46;5.50;;;4.10;;
5923;SDS011;2987;50.884;14.818;2022-10-16T17:41:14;6.67;;;4.13;;
5923;SDS011;2987;50.884;14.818;2022-10-16T17:43:42;8.77;;;4.50;;
5923;SDS011;2987;50.884;14.818;2022-10-16T17:46:09;6.30;;;4.40;;
5923;SDS011;2987;50.884;14.818;2022-10-16T17:48:39;6.00;;;4.03;;
5923;SDS011;2987;50.884;14.818;2022-10-16T17:51:07;4.07;;;3.67;;
5923;SDS011;2987;50.884;14.818;2022-10-16T17:53:35;5.17;;;3.60;;